createdAt,value
2023-05-06T00:00:10.835Z,10.15
2023-05-06T00:02:45.050Z,10.45
2023-05-06T00:05:14.174Z,10.95
2023-05-06T00:07:43.014Z,10.74
2023-05-06T00:10:11.959Z,10.50
2023-05-06T00:12:41.036Z,11.12
2023-05-06T00:15:12.213Z,11.47
2023-05-06T00:17:41.192Z,11.80
2023-05-06T00:20:11.390Z,11.74
2023-05-06T00:22:40.244Z,11.96
2023-05-06T00:25:10.104Z,12.16
2023-05-06T00:27:39.863Z,12.25
2023-05-06T00:30:11.887Z,12.27
2023-05-06T00:32:40.844Z,12.30
2023-05-06T00:35:10.668Z,12.50
2023-05-06T00:37:39.727Z,12.69
2023-05-06T00:40:10.602Z,12.73
2023-05-06T00:42:39.490Z,12.58
2023-05-06T00:45:09.569Z,12.16
2023-05-06T00:47:40.579Z,11.48
2023-05-06T00:50:10.198Z,11.86
2023-05-06T00:52:39.151Z,12.35
2023-05-06T00:55:08.980Z,12.60
2023-05-06T00:57:38.621Z,12.17
2023-05-06T01:00:08.803Z,11.73
2023-05-06T01:02:47.020Z,11.96
2023-05-06T01:05:18.428Z,12.42
2023-05-06T01:07:53.875Z,12.40
2023-05-06T01:10:27.998Z,12.08
2023-05-06T01:13:05.746Z,12.05
2023-05-06T01:15:37.848Z,12.07
2023-05-06T01:18:11.977Z,11.98
2023-05-06T01:20:43.599Z,11.43
2023-05-06T01:23:15.443Z,11.76
2023-05-06T01:25:44.414Z,11.88
2023-05-06T01:28:14.247Z,11.51
2023-05-06T01:30:54.720Z,11.71
2023-05-06T01:33:33.471Z,11.26
2023-05-06T01:36:11.350Z,11.09
2023-05-06T01:38:48.085Z,10.97
2023-05-06T01:41:19.059Z,10.44
2023-05-06T01:43:50.821Z,10.28
2023-05-06T01:46:21.272Z,10.31
2023-05-06T01:48:53.973Z,10.56
2023-05-06T01:51:25.586Z,11.10
2023-05-06T01:53:55.890Z,11.61
2023-05-06T01:56:26.014Z,11.89
2023-05-06T01:58:54.928Z,12.20
2023-05-06T02:01:23.905Z,11.51
2023-05-06T02:03:53.071Z,11.02
2023-05-06T02:06:22.360Z,11.14
2023-05-06T02:08:51.271Z,10.42
2023-05-06T02:11:25.842Z,10.11
2023-05-06T02:14:00.292Z,9.98
2023-05-06T02:16:30.910Z,9.82
2023-05-06T02:18:59.764Z,10.16
2023-05-06T02:21:29.660Z,10.57
2023-05-06T02:23:58.546Z,10.86
2023-05-06T02:26:28.921Z,11.46
2023-05-06T02:28:57.803Z,11.67
2023-05-06T02:31:26.598Z,11.95
2023-05-06T02:33:55.444Z,11.36
2023-05-06T02:36:24.261Z,11.39
2023-05-06T02:38:53.058Z,11.52
2023-05-06T02:41:21.898Z,10.82
2023-05-06T02:43:52.151Z,11.01
2023-05-06T02:46:21.043Z,10.69
2023-05-06T02:48:49.999Z,10.94
2023-05-06T02:51:19.013Z,11.35
2023-05-06T02:53:47.845Z,11.76
2023-05-06T02:56:16.850Z,11.03
2023-05-06T02:58:45.785Z,10.63
2023-05-06T03:01:16.085Z,10.57
2023-05-06T03:03:45.075Z,10.29
2023-05-06T03:06:13.952Z,10.20
2023-05-06T03:08:42.991Z,10.16
2023-05-06T03:11:11.869Z,10.25
2023-05-06T03:13:40.744Z,9.33
2023-05-06T03:16:13.774Z,9.16
2023-05-06T03:18:47.138Z,9.08
2023-05-06T03:21:16.444Z,9.05
2023-05-06T03:23:47.616Z,9.32
2023-05-06T03:26:17.478Z,9.43
2023-05-06T03:28:47.623Z,9.20
2023-05-06T03:31:19.502Z,9.34
2023-05-06T03:33:50.185Z,9.30
2023-05-06T03:36:19.494Z,9.22
2023-05-06T03:38:50.397Z,8.86
2023-05-06T03:41:19.615Z,8.81
2023-05-06T03:43:48.464Z,8.99
2023-05-06T03:46:20.043Z,9.13
2023-05-06T03:48:50.395Z,9.08
2023-05-06T03:51:20.766Z,9.17
2023-05-06T03:53:49.722Z,9.29
2023-05-06T03:56:19.006Z,9.45
2023-05-06T03:58:51.069Z,9.52
2023-05-06T04:01:21.772Z,9.63
2023-05-06T04:03:54.527Z,9.76
2023-05-06T04:06:26.194Z,9.86
2023-05-06T04:08:55.414Z,9.86
2023-05-06T04:11:25.287Z,10.02
2023-05-06T04:13:54.292Z,10.10
2023-05-06T04:16:25.245Z,10.25
2023-05-06T04:18:57.595Z,10.22
2023-05-06T04:21:27.282Z,10.05
2023-05-06T04:24:02.927Z,9.62
2023-05-06T04:26:38.786Z,9.63
2023-05-06T04:29:07.966Z,9.54
2023-05-06T04:31:43.160Z,9.41
2023-05-06T04:34:16.719Z,9.58
2023-05-06T04:36:47.700Z,9.66
2023-05-06T04:39:27.729Z,9.82
2023-05-06T04:41:56.684Z,10.06
2023-05-06T04:44:34.317Z,10.26
2023-05-06T04:47:05.017Z,10.49
2023-05-06T04:49:36.196Z,10.55
2023-05-06T04:52:06.699Z,10.42
2023-05-06T04:54:35.878Z,10.20
2023-05-06T04:57:05.025Z,10.24
2023-05-06T04:59:35.357Z,10.39
2023-05-06T05:02:04.896Z,10.50
2023-05-06T05:04:35.101Z,10.80
2023-05-06T05:07:04.121Z,11.06
2023-05-06T05:09:34.623Z,11.15
2023-05-06T05:12:04.948Z,11.41
2023-05-06T05:14:37.412Z,11.59
2023-05-06T05:17:07.002Z,11.96
2023-05-06T05:19:37.746Z,12.58
2023-05-06T05:22:06.851Z,12.74
2023-05-06T05:24:35.868Z,12.73
2023-05-06T05:27:04.878Z,12.98
2023-05-06T05:29:34.468Z,13.15
2023-05-06T05:32:06.571Z,13.29
2023-05-06T05:34:37.400Z,13.55
2023-05-06T05:37:06.674Z,13.59
2023-05-06T05:39:36.693Z,13.80
2023-05-06T05:42:05.807Z,14.24
2023-05-06T05:44:36.759Z,14.67
2023-05-06T05:47:07.085Z,14.89
2023-05-06T05:49:38.706Z,14.84
2023-05-06T05:52:09.907Z,15.24
2023-05-06T05:54:39.405Z,15.28
2023-05-06T05:57:09.107Z,15.53
2023-05-06T05:59:38.699Z,16.00
2023-05-06T06:02:09.025Z,15.96
2023-05-06T06:04:40.085Z,15.91
2023-05-06T06:07:09.427Z,16.05
2023-05-06T06:09:42.147Z,16.15
2023-05-06T06:12:11.163Z,16.43
2023-05-06T06:14:44.918Z,16.76
2023-05-06T06:17:14.160Z,17.06
2023-05-06T06:19:46.785Z,17.39
2023-05-06T06:22:15.789Z,17.49
2023-05-06T06:24:45.728Z,17.52
2023-05-06T06:27:14.576Z,17.77
2023-05-06T06:29:43.494Z,18.54
2023-05-06T06:32:12.511Z,18.52
2023-05-06T06:34:41.722Z,18.51
2023-05-06T06:37:13.111Z,18.52
2023-05-06T06:39:41.931Z,18.48
2023-05-06T06:42:10.842Z,18.60
2023-05-06T06:44:49.546Z,18.43
2023-05-06T06:47:18.427Z,18.68
2023-05-06T06:49:47.292Z,18.83
2023-05-06T06:52:17.512Z,18.60
2023-05-06T06:54:46.386Z,18.58
2023-05-06T06:57:15.241Z,18.83
2023-05-06T06:59:44.090Z,18.93
2023-05-06T07:02:12.898Z,19.36
2023-05-06T07:04:41.808Z,19.66
2023-05-06T07:07:10.728Z,19.26
2023-05-06T07:09:41.528Z,19.43
2023-05-06T07:12:10.497Z,19.33
2023-05-06T07:14:39.379Z,19.44
2023-05-06T07:17:08.406Z,19.03
2023-05-06T07:19:37.251Z,18.88
2023-05-06T07:22:06.088Z,19.16
2023-05-06T07:24:34.929Z,19.61
2023-05-06T07:27:05.295Z,20.09
2023-05-06T07:29:34.922Z,19.52
2023-05-06T07:32:04.158Z,19.80
2023-05-06T07:34:34.207Z,20.48
2023-05-06T07:37:03.901Z,20.47
2023-05-06T07:39:32.721Z,20.54
2023-05-06T07:42:02.193Z,20.92
2023-05-06T07:44:32.398Z,21.17
2023-05-06T07:47:02.152Z,21.23
2023-05-06T07:49:33.289Z,21.12
2023-05-06T07:52:03.540Z,21.43
2023-05-06T07:54:32.629Z,21.13
2023-05-06T07:57:02.457Z,22.11
2023-05-06T07:59:32.730Z,20.87
2023-05-06T08:02:02.108Z,19.15
2023-05-06T08:04:31.039Z,20.42
2023-05-06T08:06:59.877Z,20.83
2023-05-06T08:09:28.676Z,19.89
2023-05-06T08:11:58.483Z,19.82
2023-05-06T08:14:27.302Z,20.09
2023-05-06T08:16:57.582Z,19.54
2023-05-06T08:19:26.489Z,19.66
2023-05-06T08:21:55.506Z,19.63
2023-05-06T08:24:24.354Z,19.62
2023-05-06T08:26:53.270Z,19.81
2023-05-06T08:29:22.047Z,19.89
2023-05-06T08:31:50.980Z,20.17
2023-05-06T08:34:21.388Z,20.06
2023-05-06T08:36:50.626Z,20.09
2023-05-06T08:39:19.478Z,19.98
2023-05-06T08:41:49.624Z,19.96
2023-05-06T08:44:20.294Z,20.23
2023-05-06T08:46:49.649Z,20.24
2023-05-06T08:49:18.540Z,20.35
2023-05-06T08:51:52.460Z,20.31
2023-05-06T08:54:21.413Z,20.57
2023-05-06T08:56:54.762Z,20.20
2023-05-06T08:59:25.895Z,20.03
2023-05-06T09:01:54.854Z,19.63
2023-05-06T09:04:23.729Z,19.29
2023-05-06T09:06:53.972Z,19.32
2023-05-06T09:09:22.792Z,19.38
2023-05-06T09:11:54.215Z,19.42
2023-05-06T09:14:23.413Z,19.59
2023-05-06T09:16:53.852Z,19.83
2023-05-06T09:19:23.665Z,19.82
2023-05-06T09:21:53.862Z,19.90
2023-05-06T09:24:22.725Z,19.93
2023-05-06T09:26:55.144Z,19.43
2023-05-06T09:29:24.004Z,19.34
2023-05-06T09:31:55.384Z,19.14
2023-05-06T09:34:24.779Z,19.35
2023-05-06T09:36:57.257Z,19.35
2023-05-06T09:39:27.999Z,19.40
2023-05-06T09:41:56.860Z,19.58
2023-05-06T09:44:26.169Z,19.56
2023-05-06T09:46:55.094Z,19.81
2023-05-06T09:49:24.237Z,20.05
2023-05-06T09:51:55.069Z,19.98
2023-05-06T09:54:24.943Z,20.09
2023-05-06T09:56:54.514Z,20.41
2023-05-06T09:59:25.602Z,20.48
2023-05-06T10:01:55.404Z,21.02
2023-05-06T10:04:27.208Z,21.46
2023-05-06T10:07:00.523Z,21.37
2023-05-06T10:09:31.316Z,22.27
2023-05-06T10:12:00.754Z,22.75
2023-05-06T10:14:30.493Z,23.20
2023-05-06T10:17:00.745Z,23.18
2023-05-06T10:19:29.785Z,23.82
2023-05-06T10:22:07.633Z,23.83
2023-05-06T10:24:48.252Z,23.41
2023-05-06T10:27:23.516Z,23.29
2023-05-06T10:29:54.380Z,22.51
2023-05-06T10:32:23.293Z,23.49
2023-05-06T10:34:56.444Z,24.24
2023-05-06T10:37:29.335Z,24.70
2023-05-06T10:39:58.802Z,24.99
2023-05-06T10:42:29.316Z,25.25
2023-05-06T10:44:59.101Z,25.05
2023-05-06T10:47:28.304Z,25.40
2023-05-06T10:50:22.100Z,25.62
2023-05-06T10:52:55.567Z,25.15
2023-05-06T10:55:29.449Z,23.99
2023-05-06T10:58:02.061Z,23.88
2023-05-06T11:00:35.186Z,23.89
2023-05-06T11:03:06.890Z,23.43
2023-05-06T11:05:48.625Z,23.73
2023-05-06T11:08:23.885Z,23.26
2023-05-06T11:10:52.543Z,24.50
2023-05-06T11:13:24.155Z,25.74
2023-05-06T11:15:53.550Z,25.11
2023-05-06T11:18:44.217Z,25.48
2023-05-06T11:21:38.881Z,26.31
2023-05-06T11:24:10.305Z,26.71
2023-05-06T11:26:42.055Z,26.73
2023-05-06T11:29:11.343Z,27.13
2023-05-06T11:31:42.176Z,26.22
2023-05-06T11:34:13.621Z,24.19
2023-05-06T11:36:55.009Z,22.23
2023-05-06T11:39:25.739Z,21.74
2023-05-06T11:41:54.850Z,22.30
2023-05-06T11:44:28.668Z,22.38
2023-05-06T11:46:59.226Z,23.43
2023-05-06T11:49:28.648Z,24.50
2023-05-06T11:51:58.266Z,23.85
2023-05-06T11:54:28.981Z,23.47
2023-05-06T11:56:58.066Z,22.36
2023-05-06T11:59:32.393Z,22.14
2023-05-06T12:02:04.231Z,21.87
2023-05-06T12:04:41.429Z,21.79
2023-05-06T12:07:12.138Z,21.19
2023-05-06T12:09:45.742Z,21.16
2023-05-06T12:12:17.708Z,22.15
2023-05-06T12:14:48.314Z,22.97
2023-05-06T12:17:17.697Z,23.55
2023-05-06T12:19:47.742Z,23.96
2023-05-06T12:22:20.646Z,24.23
2023-05-06T12:24:50.986Z,24.28
2023-05-06T12:27:31.240Z,24.98
2023-05-06T12:30:00.673Z,25.42
2023-05-06T12:32:29.575Z,25.40
2023-05-06T12:34:59.563Z,24.52
2023-05-06T12:37:30.495Z,23.87
2023-05-06T12:40:02.089Z,23.91
2023-05-06T12:42:31.078Z,24.18
2023-05-06T12:44:59.900Z,23.97
2023-05-06T12:47:28.802Z,23.80
2023-05-06T12:49:59.387Z,23.59
2023-05-06T12:52:30.105Z,22.81
2023-05-06T12:55:03.266Z,22.16
2023-05-06T12:57:32.167Z,22.16
2023-05-06T13:00:01.152Z,22.22
2023-05-06T13:02:30.017Z,22.17
2023-05-06T13:04:58.827Z,21.99
2023-05-06T13:07:27.770Z,22.20
2023-05-06T13:09:56.577Z,22.05
2023-05-06T13:12:26.808Z,22.11
2023-05-06T13:14:55.710Z,22.39
2023-05-06T13:17:24.856Z,22.51
2023-05-06T13:19:53.871Z,22.36
2023-05-06T13:22:22.762Z,21.97
2023-05-06T13:24:51.786Z,21.71
2023-05-06T13:27:20.553Z,21.73
2023-05-06T13:29:50.825Z,21.77
2023-05-06T13:32:19.646Z,21.22
2023-05-06T13:34:48.438Z,21.07
2023-05-06T13:37:17.302Z,21.77
2023-05-06T13:39:46.163Z,21.49
2023-05-06T13:42:14.991Z,21.63
2023-05-06T13:44:43.824Z,21.76
2023-05-06T13:47:14.073Z,22.11
2023-05-06T13:49:42.872Z,22.35
2023-05-06T13:52:11.656Z,21.90
2023-05-06T13:54:40.563Z,21.45
2023-05-06T13:57:09.428Z,21.21
2023-05-06T13:59:38.241Z,21.95
2023-05-06T14:02:09.589Z,22.51
2023-05-06T14:04:40.252Z,22.77
2023-05-06T14:07:09.066Z,22.65
2023-05-06T14:09:37.933Z,22.42
2023-05-06T14:12:07.118Z,23.02
2023-05-06T14:14:35.965Z,23.39
2023-05-06T14:17:04.841Z,23.34
2023-05-06T14:19:33.655Z,22.34
2023-05-06T14:22:03.909Z,22.49
2023-05-06T14:24:32.749Z,22.29
2023-05-06T14:27:02.060Z,22.54
2023-05-06T14:29:30.999Z,22.23
2023-05-06T14:31:59.902Z,22.81
2023-05-06T14:34:29.494Z,22.57
2023-05-06T14:36:59.057Z,22.44
2023-05-06T14:39:29.318Z,21.88
2023-05-06T14:41:58.265Z,21.84
2023-05-06T14:44:27.113Z,21.57
2023-05-06T14:46:55.896Z,21.44
2023-05-06T14:49:24.667Z,21.04
2023-05-06T14:51:53.484Z,20.88
2023-05-06T14:54:22.355Z,20.70
2023-05-06T14:56:53.951Z,20.89
2023-05-06T14:59:23.007Z,20.90
2023-05-06T15:01:51.874Z,20.34
2023-05-06T15:04:20.875Z,20.59
2023-05-06T15:06:49.667Z,20.38
2023-05-06T15:09:18.467Z,20.55
2023-05-06T15:11:47.317Z,20.36
2023-05-06T15:14:17.592Z,20.07
2023-05-06T15:16:46.670Z,20.36
2023-05-06T15:19:15.515Z,20.57
2023-05-06T15:21:44.388Z,20.72
2023-05-06T15:24:13.279Z,20.67
2023-05-06T15:26:42.067Z,20.62
2023-05-06T15:29:10.933Z,20.70
2023-05-06T15:31:41.648Z,20.74
2023-05-06T15:34:11.886Z,20.74
2023-05-06T15:36:41.687Z,21.57
2023-05-06T15:39:10.704Z,21.30
2023-05-06T15:41:39.737Z,21.46
2023-05-06T15:44:10.593Z,21.30
2023-05-06T15:46:40.990Z,21.02
2023-05-06T15:49:39.686Z,20.72
2023-05-06T15:52:01.024Z,20.58
2023-05-06T15:54:31.447Z,20.21
2023-05-06T15:57:04.878Z,20.31
2023-05-06T15:59:35.300Z,20.26
2023-05-06T16:04:37.696Z,19.94
2023-05-06T16:07:07.766Z,19.81
2023-05-06T16:09:36.606Z,19.73
2023-05-06T16:12:06.098Z,19.71
2023-05-06T16:14:35.031Z,19.49
2023-05-06T16:17:05.273Z,19.59
2023-05-06T16:19:35.169Z,19.77
2023-05-06T16:22:04.641Z,19.93
2023-05-06T16:24:33.488Z,20.16
2023-05-06T16:27:02.501Z,20.09
2023-05-06T16:29:31.338Z,20.23
2023-05-06T16:32:00.268Z,20.38
2023-05-06T16:34:31.081Z,19.90
2023-05-06T16:37:00.605Z,19.90
2023-05-06T16:39:29.761Z,19.83
2023-05-06T16:41:58.612Z,19.54
2023-05-06T16:44:27.478Z,19.05
2023-05-06T16:46:56.656Z,18.69
2023-05-06T16:49:27.859Z,18.38
2023-05-06T16:51:58.468Z,18.18
2023-05-06T16:54:27.338Z,18.14
2023-05-06T16:56:56.219Z,18.08
2023-05-06T16:59:25.094Z,17.91
2023-05-06T17:01:54.082Z,17.74
2023-05-06T17:04:24.668Z,17.81
2023-05-06T17:06:53.533Z,17.60
2023-05-06T17:09:23.943Z,17.54
2023-05-06T17:11:52.865Z,17.33
2023-05-06T17:14:22.120Z,17.00
2023-05-06T17:16:52.072Z,17.17
2023-05-06T17:19:20.993Z,17.27
2023-05-06T17:21:49.828Z,17.24
2023-05-06T17:24:18.710Z,17.16
2023-05-06T17:26:49.011Z,16.98
2023-05-06T17:29:17.874Z,16.78
2023-05-06T17:31:46.690Z,16.92
2023-05-06T17:34:15.765Z,16.92
2023-05-06T17:36:44.624Z,16.95
2023-05-06T17:39:13.479Z,16.97
2023-05-06T17:41:42.357Z,16.75
2023-05-06T17:44:12.548Z,16.54
2023-05-06T17:46:41.492Z,16.60
2023-05-06T17:49:10.551Z,16.60
2023-05-06T17:51:40.887Z,16.23
2023-05-06T17:54:09.796Z,16.28
2023-05-06T17:56:38.755Z,16.39
2023-05-06T17:59:07.924Z,16.47
2023-05-06T18:01:38.155Z,16.56
2023-05-06T18:04:07.473Z,16.67
2023-05-06T18:06:36.436Z,16.87
2023-05-06T18:09:05.312Z,16.81
2023-05-06T18:11:34.237Z,17.01
2023-05-06T18:14:03.721Z,17.11
2023-05-06T18:16:32.714Z,16.78
2023-05-06T18:19:05.126Z,16.59
2023-05-06T18:21:34.614Z,16.41
2023-05-06T18:24:15.306Z,16.38
2023-05-06T18:26:46.175Z,16.06
2023-05-06T18:29:15.320Z,16.09
2023-05-06T18:31:44.204Z,16.06
2023-05-06T18:34:14.675Z,15.82
2023-05-06T18:36:43.543Z,15.68
2023-05-06T18:39:12.369Z,15.80
2023-05-06T18:41:41.447Z,15.73
2023-05-06T18:44:10.326Z,15.60
2023-05-06T18:46:39.150Z,15.43
2023-05-06T18:49:08.307Z,15.39
2023-05-06T18:51:39.083Z,15.59
2023-05-06T18:54:08.299Z,15.64
2023-05-06T18:56:38.042Z,15.25
2023-05-06T18:59:06.866Z,15.24
2023-05-06T19:01:35.829Z,15.18
2023-05-06T19:04:05.015Z,15.06
2023-05-06T19:06:33.834Z,14.69
2023-05-06T19:09:04.188Z,14.59
2023-05-06T19:11:33.957Z,14.73
2023-05-06T19:14:03.314Z,14.82
2023-05-06T19:16:32.144Z,14.74
2023-05-06T19:19:02.650Z,14.69
2023-05-06T19:21:31.478Z,14.53
2023-05-06T19:24:01.051Z,14.55
2023-05-06T19:26:31.376Z,14.35
2023-05-06T19:29:00.278Z,14.18
2023-05-06T19:31:29.797Z,13.90
2023-05-06T19:33:58.728Z,14.03
2023-05-06T19:36:28.339Z,13.94
2023-05-06T19:38:57.240Z,13.88
2023-05-06T19:41:26.382Z,13.82
2023-05-06T19:43:56.599Z,14.06
2023-05-06T19:46:25.569Z,13.93
2023-05-06T19:48:54.508Z,13.76
2023-05-06T19:51:23.329Z,13.73
2023-05-06T19:53:52.135Z,13.51
2023-05-06T19:56:21.091Z,13.58
2023-05-06T19:58:51.090Z,13.61
2023-05-06T20:01:23.929Z,13.61
2023-05-06T20:03:53.044Z,13.55
2023-05-06T20:06:21.970Z,13.52
2023-05-06T20:08:50.843Z,13.39
2023-05-06T20:11:20.099Z,13.36
2023-05-06T20:13:48.899Z,13.25
2023-05-06T20:16:17.803Z,13.29
2023-05-06T20:18:49.463Z,13.20
2023-05-06T20:21:18.354Z,13.09
2023-05-06T20:23:47.156Z,13.03
2023-05-06T20:26:16.361Z,12.78
2023-05-06T20:28:45.230Z,12.79
2023-05-06T20:31:14.082Z,12.86
2023-05-06T20:33:42.910Z,12.84
2023-05-06T20:36:13.118Z,12.49
2023-05-06T20:38:41.960Z,11.88
2023-05-06T20:41:10.869Z,12.06
2023-05-06T20:43:39.712Z,12.03
2023-05-06T20:46:09.030Z,12.04
2023-05-06T20:48:37.938Z,12.34
2023-05-06T20:51:06.751Z,12.27
2023-05-06T20:53:37.470Z,12.13
2023-05-06T20:56:08.187Z,12.26
2023-05-06T20:58:37.008Z,12.22
2023-05-06T21:01:05.935Z,12.00
2023-05-06T21:03:34.978Z,12.14
2023-05-06T21:06:04.553Z,12.22
2023-05-06T21:08:33.415Z,12.13
2023-05-06T21:11:03.653Z,12.19
2023-05-06T21:13:32.559Z,12.29
2023-05-06T21:16:02.112Z,12.05
2023-05-06T21:18:31.123Z,12.06
2023-05-06T21:21:00.159Z,12.09
2023-05-06T21:23:29.656Z,12.06
2023-05-06T21:25:59.606Z,11.70
2023-05-06T21:28:29.823Z,11.83
2023-05-06T21:30:58.751Z,11.81
2023-05-06T21:33:27.662Z,11.90
2023-05-06T21:35:56.849Z,11.88
2023-05-06T21:38:27.881Z,11.83
2023-05-06T21:40:56.918Z,11.78
2023-05-06T21:43:25.774Z,11.76
2023-05-06T21:45:56.031Z,11.72
2023-05-06T21:48:24.840Z,11.76
2023-05-06T21:50:55.021Z,11.89
2023-05-06T21:53:23.867Z,12.01
2023-05-06T21:55:53.283Z,11.90
2023-05-06T21:58:22.088Z,11.84
2023-05-06T22:00:50.991Z,11.74
2023-05-06T22:03:21.309Z,11.63
2023-05-06T22:05:50.270Z,11.57
2023-05-06T22:08:19.127Z,11.50
2023-05-06T22:10:48.012Z,11.66
2023-05-06T22:13:16.893Z,11.57
2023-05-06T22:15:45.834Z,11.82
2023-05-06T22:18:14.962Z,11.86
2023-05-06T22:20:46.616Z,11.77
2023-05-06T22:23:15.423Z,11.58
2023-05-06T22:25:44.328Z,11.31
2023-05-06T22:28:13.231Z,11.27
2023-05-06T22:30:42.039Z,11.38
2023-05-06T22:33:10.940Z,11.43
2023-05-06T22:35:39.865Z,11.52
2023-05-06T22:38:10.075Z,11.65
2023-05-06T22:40:38.942Z,11.38
2023-05-06T22:43:07.855Z,11.39
2023-05-06T22:45:36.779Z,11.32
2023-05-06T22:48:06.313Z,11.52
2023-05-06T22:50:35.290Z,11.00
2023-05-06T22:53:13.755Z,11.08
2023-05-06T22:55:46.103Z,11.15
2023-05-06T22:58:15.388Z,10.59
2023-05-06T23:00:47.840Z,10.45
2023-05-06T23:03:17.988Z,10.59
2023-05-06T23:05:47.104Z,10.65
2023-05-06T23:08:16.658Z,10.75
2023-05-06T23:10:47.404Z,10.94
2023-05-06T23:13:16.265Z,11.08
2023-05-06T23:15:45.105Z,11.22
2023-05-06T23:18:14.035Z,10.65
2023-05-06T23:20:43.356Z,10.34
2023-05-06T23:23:12.192Z,10.35
2023-05-06T23:25:41.169Z,10.46
2023-05-06T23:28:11.330Z,10.65
2023-05-06T23:30:40.236Z,10.81
2023-05-06T23:33:09.158Z,10.77
2023-05-06T23:35:38.058Z,10.74
2023-05-06T23:38:06.897Z,10.70
2023-05-06T23:40:35.741Z,10.77
2023-05-06T23:43:07.104Z,10.84
2023-05-06T23:45:37.364Z,10.96
2023-05-06T23:48:07.126Z,11.15
2023-05-06T23:50:36.094Z,11.24
2023-05-06T23:53:04.979Z,11.22
2023-05-06T23:55:33.967Z,11.38
2023-05-06T23:58:03.354Z,11.45
